createdAt,value
2023-04-18T00:00:53.402Z,1003.72
2023-04-18T00:01:53.499Z,1003.73
2023-04-18T00:02:53.596Z,1003.73
2023-04-18T00:03:53.530Z,1003.74
2023-04-18T00:04:53.569Z,1003.73
2023-04-18T00:05:53.347Z,1003.71
2023-04-18T00:06:53.353Z,1003.71
2023-04-18T00:07:53.414Z,1003.69
2023-04-18T00:08:53.419Z,1003.67
2023-04-18T00:09:53.331Z,1003.68
2023-04-18T00:10:53.368Z,1003.69
2023-04-18T00:11:53.301Z,1003.69
2023-04-18T00:12:53.302Z,1003.68
2023-04-18T00:13:53.350Z,1003.68
2023-04-18T00:14:53.286Z,1003.68
2023-04-18T00:15:53.299Z,1003.69
2023-04-18T00:16:53.550Z,1003.68
2023-04-18T00:17:53.364Z,1003.68
2023-04-18T00:18:53.251Z,1003.67
2023-04-18T00:19:53.294Z,1003.67
2023-04-18T00:20:53.257Z,1003.67
2023-04-18T00:21:53.316Z,1003.66
2023-04-18T00:22:53.289Z,1003.65
2023-04-18T00:23:53.372Z,1003.66
2023-04-18T00:24:53.425Z,1003.64
2023-04-18T00:25:53.357Z,1003.67
2023-04-18T00:26:53.196Z,1003.63
2023-04-18T00:27:53.209Z,1003.64
2023-04-18T00:28:53.336Z,1003.63
2023-04-18T00:29:53.187Z,1003.61
2023-04-18T00:30:53.242Z,1003.63
2023-04-18T00:31:53.195Z,1003.62
2023-04-18T00:32:53.237Z,1003.61
2023-04-18T00:33:53.149Z,1003.60
2023-04-18T00:34:53.185Z,1003.57
2023-04-18T00:35:53.164Z,1003.58
2023-04-18T00:36:53.143Z,1003.57
2023-04-18T00:37:53.135Z,1003.58
2023-04-18T00:38:53.164Z,1003.57
2023-04-18T00:39:53.177Z,1003.56
2023-04-18T00:40:53.155Z,1003.57
2023-04-18T00:41:53.101Z,1003.57
2023-04-18T00:42:53.104Z,1003.57
2023-04-18T00:43:53.113Z,1003.58
2023-04-18T00:44:53.062Z,1003.57
2023-04-18T00:45:53.134Z,1003.58
2023-04-18T00:46:53.080Z,1003.58
2023-04-18T00:47:53.223Z,1003.59
2023-04-18T00:48:53.031Z,1003.60
2023-04-18T00:49:53.054Z,1003.60
2023-04-18T00:50:53.019Z,1003.59
2023-04-18T00:51:53.069Z,1003.60
2023-04-18T00:52:53.069Z,1003.59
2023-04-18T00:53:53.022Z,1003.59
2023-04-18T00:54:52.989Z,1003.59
2023-04-18T00:55:53.022Z,1003.58
2023-04-18T00:56:52.999Z,1003.57
2023-04-18T00:57:53.005Z,1003.57
2023-04-18T00:58:53.017Z,1003.57
2023-04-18T00:59:52.952Z,1003.56
2023-04-18T01:00:52.971Z,1003.55
2023-04-18T01:01:53.104Z,1003.53
2023-04-18T01:02:53.057Z,1003.53
2023-04-18T01:03:53.155Z,1003.52
2023-04-18T01:04:52.985Z,1003.51
2023-04-18T01:05:52.952Z,1003.51
2023-04-18T01:06:52.892Z,1003.53
2023-04-18T01:07:52.927Z,1003.52
2023-04-18T01:08:52.937Z,1003.53
2023-04-18T01:09:52.906Z,1003.53
2023-04-18T01:10:52.951Z,1003.52
2023-04-18T01:11:52.876Z,1003.49
2023-04-18T01:12:52.866Z,1003.49
2023-04-18T01:14:08.633Z,1003.48
2023-04-18T01:14:53.863Z,1003.47
2023-04-18T01:15:52.883Z,1003.46
2023-04-18T01:16:52.875Z,1003.46
2023-04-18T01:17:52.864Z,1003.45
2023-04-18T01:18:52.842Z,1003.45
2023-04-18T01:19:52.821Z,1003.45
2023-04-18T01:20:52.830Z,1003.44
2023-04-18T01:21:52.814Z,1003.41
2023-04-18T01:22:53.211Z,1003.42
2023-04-18T01:23:52.775Z,1003.42
2023-04-18T01:24:52.788Z,1003.42
2023-04-18T01:25:52.777Z,1003.41
2023-04-18T01:26:52.779Z,1003.40
2023-04-18T01:27:52.924Z,1003.40
2023-04-18T01:28:52.800Z,1003.39
2023-04-18T01:29:52.858Z,1003.38
2023-04-18T01:30:52.785Z,1003.39
2023-04-18T01:31:52.719Z,1003.40
2023-04-18T01:32:52.789Z,1003.40
2023-04-18T01:33:52.718Z,1003.41
2023-04-18T01:34:52.771Z,1003.40
2023-04-18T01:35:52.774Z,1003.38
2023-04-18T01:36:52.865Z,1003.40
2023-04-18T01:37:52.710Z,1003.40
2023-04-18T01:38:52.693Z,1003.39
2023-04-18T01:39:52.717Z,1003.42
2023-04-18T01:40:52.734Z,1003.40
2023-04-18T01:41:52.679Z,1003.40
2023-04-18T01:42:52.670Z,1003.39
2023-04-18T01:43:52.670Z,1003.40
2023-04-18T01:44:52.663Z,1003.40
2023-04-18T01:46:08.794Z,1003.41
2023-04-18T01:46:52.707Z,1003.39
2023-04-18T01:47:52.704Z,1003.39
2023-04-18T01:48:52.651Z,1003.38
2023-04-18T01:49:52.631Z,1003.36
2023-04-18T01:50:52.612Z,1003.35
2023-04-18T01:51:52.659Z,1003.37
2023-04-18T01:52:52.584Z,1003.38
2023-04-18T01:53:52.599Z,1003.38
2023-04-18T01:54:52.588Z,1003.39
2023-04-18T01:55:52.567Z,1003.39
2023-04-18T01:56:52.551Z,1003.40
2023-04-18T01:57:52.596Z,1003.38
2023-04-18T01:58:52.551Z,1003.38
2023-04-18T01:59:52.543Z,1003.38
2023-04-18T02:00:52.533Z,1003.36
2023-04-18T02:01:52.566Z,1003.35
2023-04-18T02:02:52.664Z,1003.35
2023-04-18T02:03:52.834Z,1003.35
2023-04-18T02:04:52.521Z,1003.33
2023-04-18T02:05:52.558Z,1003.35
2023-04-18T02:06:52.502Z,1003.31
2023-04-18T02:07:52.496Z,1003.32
2023-04-18T02:08:52.490Z,1003.33
2023-04-18T02:09:52.514Z,1003.33
2023-04-18T02:10:52.482Z,1003.33
2023-04-18T02:11:52.453Z,1003.33
2023-04-18T02:12:52.463Z,1003.34
2023-04-18T02:13:52.469Z,1003.33
2023-04-18T02:14:52.423Z,1003.33
2023-04-18T02:15:52.459Z,1003.34
2023-04-18T02:16:52.451Z,1003.34
2023-04-18T02:17:52.468Z,1003.35
2023-04-18T02:18:52.435Z,1003.36
2023-04-18T02:19:52.420Z,1003.36
2023-04-18T02:20:52.384Z,1003.36
2023-04-18T02:21:52.450Z,1003.35
2023-04-18T02:22:52.372Z,1003.37
2023-04-18T02:23:52.374Z,1003.36
2023-04-18T02:24:52.367Z,1003.38
2023-04-18T02:25:52.348Z,1003.37
2023-04-18T02:26:52.377Z,1003.38
2023-04-18T02:27:52.736Z,1003.39
2023-04-18T02:28:52.343Z,1003.39
2023-04-18T02:29:52.338Z,1003.40
2023-04-18T02:30:52.338Z,1003.39
2023-04-18T02:31:52.356Z,1003.40
2023-04-18T02:32:52.383Z,1003.41
2023-04-18T02:33:52.316Z,1003.41
2023-04-18T02:34:52.285Z,1003.40
2023-04-18T02:35:52.271Z,1003.40
2023-04-18T02:36:52.273Z,1003.39
2023-04-18T02:37:52.278Z,1003.40
2023-04-18T02:38:52.263Z,1003.40
2023-04-18T02:39:52.286Z,1003.40
2023-04-18T02:40:52.268Z,1003.40
2023-04-18T02:41:52.245Z,1003.41
2023-04-18T02:42:52.244Z,1003.41
2023-04-18T02:43:52.232Z,1003.41
2023-04-18T02:44:52.196Z,1003.42
2023-04-18T02:45:52.274Z,1003.42
2023-04-18T02:46:52.190Z,1003.44
2023-04-18T02:47:56.228Z,1003.45
2023-04-18T02:48:52.207Z,1003.45
2023-04-18T02:49:52.176Z,1003.45
2023-04-18T02:50:52.180Z,1003.46
2023-04-18T02:51:52.213Z,1003.45
2023-04-18T02:52:52.175Z,1003.45
2023-04-18T02:53:52.147Z,1003.45
2023-04-18T02:54:52.143Z,1003.44
2023-04-18T02:55:52.133Z,1003.43
2023-04-18T02:56:52.130Z,1003.42
2023-04-18T02:57:52.186Z,1003.40
2023-04-18T02:58:52.121Z,1003.39
2023-04-18T02:59:52.107Z,1003.39
2023-04-18T03:00:52.132Z,1003.39
2023-04-18T03:01:52.100Z,1003.40
2023-04-18T03:02:52.147Z,1003.38
2023-04-18T03:03:52.117Z,1003.37
2023-04-18T03:04:52.114Z,1003.36
2023-04-18T03:05:52.062Z,1003.34
2023-04-18T03:06:52.082Z,1003.33
2023-04-18T03:07:52.076Z,1003.33
2023-04-18T03:08:52.096Z,1003.35
2023-04-18T03:09:52.075Z,1003.36
2023-04-18T03:10:52.053Z,1003.38
2023-04-18T03:11:52.020Z,1003.39
2023-04-18T03:12:52.007Z,1003.40
2023-04-18T03:13:52.022Z,1003.41
2023-04-18T03:14:52.022Z,1003.43
2023-04-18T03:15:52.077Z,1003.43
2023-04-18T03:16:54.680Z,1003.42
2023-04-18T03:17:52.024Z,1003.44
2023-04-18T03:18:51.972Z,1003.44
2023-04-18T03:19:51.987Z,1003.44
2023-04-18T03:20:51.986Z,1003.44
2023-04-18T03:21:51.986Z,1003.43
2023-04-18T03:22:51.941Z,1003.43
2023-04-18T03:23:51.924Z,1003.42
2023-04-18T03:24:51.949Z,1003.43
2023-04-18T03:25:51.910Z,1003.43
2023-04-18T03:26:51.936Z,1003.44
2023-04-18T03:27:51.936Z,1003.43
2023-04-18T03:28:51.914Z,1003.42
2023-04-18T03:29:51.897Z,1003.43
2023-04-18T03:30:51.924Z,1003.40
2023-04-18T03:31:51.904Z,1003.40
2023-04-18T03:32:51.948Z,1003.40
2023-04-18T03:33:52.280Z,1003.39
2023-04-18T03:34:51.900Z,1003.41
2023-04-18T03:35:51.862Z,1003.41
2023-04-18T03:36:51.846Z,1003.41
2023-04-18T03:37:51.829Z,1003.40
2023-04-18T03:38:51.840Z,1003.42
2023-04-18T03:39:51.922Z,1003.42
2023-04-18T03:40:51.836Z,1003.40
2023-04-18T03:41:51.821Z,1003.39
2023-04-18T03:42:51.807Z,1003.40
2023-04-18T03:43:51.781Z,1003.40
2023-04-18T03:44:51.825Z,1003.39
2023-04-18T03:45:51.794Z,1003.38
2023-04-18T03:46:51.814Z,1003.38
2023-04-18T03:47:51.850Z,1003.38
2023-04-18T03:48:51.751Z,1003.40
2023-04-18T03:49:51.752Z,1003.38
2023-04-18T03:50:51.742Z,1003.36
2023-04-18T03:51:51.790Z,1003.36
2023-04-18T03:52:51.718Z,1003.38
2023-04-18T03:53:51.746Z,1003.39
2023-04-18T03:54:51.709Z,1003.41
2023-04-18T03:55:51.715Z,1003.39
2023-04-18T03:56:51.715Z,1003.39
2023-04-18T03:57:51.738Z,1003.42
2023-04-18T03:58:51.685Z,1003.42
2023-04-18T03:59:51.670Z,1003.43
2023-04-18T04:00:51.727Z,1003.46
2023-04-18T04:01:51.726Z,1003.46
2023-04-18T04:02:51.840Z,1003.48
2023-04-18T04:03:51.922Z,1003.47
2023-04-18T04:04:51.730Z,1003.50
2023-04-18T04:05:51.657Z,1003.49
2023-04-18T04:06:51.674Z,1003.50
2023-04-18T04:07:51.626Z,1003.50
2023-04-18T04:08:51.645Z,1003.51
2023-04-18T04:09:51.671Z,1003.53
2023-04-18T04:10:51.624Z,1003.52
2023-04-18T04:11:51.643Z,1003.51
2023-04-18T04:12:51.601Z,1003.53
2023-04-18T04:13:51.585Z,1003.52
2023-04-18T04:14:51.582Z,1003.53
2023-04-18T04:15:51.615Z,1003.51
2023-04-18T04:16:51.633Z,1003.50
2023-04-18T04:17:51.642Z,1003.52
2023-04-18T04:18:51.564Z,1003.51
2023-04-18T04:19:51.558Z,1003.53
2023-04-18T04:20:51.800Z,1003.54
2023-04-18T04:21:51.577Z,1003.52
2023-04-18T04:22:51.536Z,1003.53
2023-04-18T04:23:51.588Z,1003.54
2023-04-18T04:24:51.544Z,1003.54
2023-04-18T04:25:51.529Z,1003.52
2023-04-18T04:26:51.496Z,1003.54
2023-04-18T04:27:51.665Z,1003.54
2023-04-18T04:28:51.495Z,1003.55
2023-04-18T04:29:51.503Z,1003.54
2023-04-18T04:30:51.474Z,1003.51
2023-04-18T04:31:51.517Z,1003.50
2023-04-18T04:32:51.507Z,1003.52
2023-04-18T04:33:51.741Z,1003.55
2023-04-18T04:34:51.489Z,1003.52
2023-04-18T04:35:51.456Z,1003.56
2023-04-18T04:36:51.430Z,1003.54
2023-04-18T04:37:51.445Z,1003.57
2023-04-18T04:38:51.412Z,1003.57
2023-04-18T04:39:51.671Z,1003.57
2023-04-18T04:40:51.377Z,1003.58
2023-04-18T04:41:51.450Z,1003.59
2023-04-18T04:42:51.719Z,1003.60
2023-04-18T04:43:51.508Z,1003.60
2023-04-18T04:44:51.451Z,1003.62
2023-04-18T04:45:51.808Z,1003.60
2023-04-18T04:46:51.434Z,1003.65
2023-04-18T04:47:51.406Z,1003.62
2023-04-18T04:48:51.345Z,1003.60
2023-04-18T04:49:51.330Z,1003.60
2023-04-18T04:50:51.340Z,1003.59
2023-04-18T04:51:51.351Z,1003.60
2023-04-18T04:52:51.333Z,1003.61
2023-04-18T04:53:51.332Z,1003.62
2023-04-18T04:54:51.372Z,1003.60
2023-04-18T04:55:51.394Z,1003.62
2023-04-18T04:56:51.285Z,1003.61
2023-04-18T04:57:51.317Z,1003.63
2023-04-18T04:58:51.338Z,1003.64
2023-04-18T04:59:51.325Z,1003.68
2023-04-18T05:00:51.407Z,1003.66
2023-04-18T05:01:51.403Z,1003.68
2023-04-18T05:02:51.590Z,1003.71
2023-04-18T05:03:51.405Z,1003.70
2023-04-18T05:04:51.270Z,1003.70
2023-04-18T05:05:51.248Z,1003.73
2023-04-18T05:06:51.219Z,1003.74
2023-04-18T05:07:51.258Z,1003.77
2023-04-18T05:08:51.242Z,1003.77
2023-04-18T05:09:51.550Z,1003.78
2023-04-18T05:10:51.221Z,1003.79
2023-04-18T05:11:51.262Z,1003.79
2023-04-18T05:13:02.215Z,1003.83
2023-04-18T05:13:52.582Z,1003.83
2023-04-18T05:14:51.144Z,1003.81
2023-04-18T05:15:51.294Z,1003.80
2023-04-18T05:16:51.339Z,1003.82
2023-04-18T05:17:51.202Z,1003.84
2023-04-18T05:18:51.146Z,1003.85
2023-04-18T05:19:51.180Z,1003.85
2023-04-18T05:20:51.128Z,1003.83
2023-04-18T05:21:51.160Z,1003.84
2023-04-18T05:22:51.093Z,1003.81
2023-04-18T05:23:51.089Z,1003.82
2023-04-18T05:24:51.461Z,1003.83
2023-04-18T05:25:51.222Z,1003.82
2023-04-18T05:26:51.087Z,1003.83
2023-04-18T05:27:51.116Z,1003.84
2023-04-18T05:28:51.053Z,1003.83
2023-04-18T05:29:51.061Z,1003.84
2023-04-18T05:30:51.094Z,1003.85
2023-04-18T05:31:51.026Z,1003.84
2023-04-18T05:32:51.211Z,1003.84
2023-04-18T05:33:51.687Z,1003.85
2023-04-18T05:34:51.033Z,1003.85
2023-04-18T05:35:51.108Z,1003.85
2023-04-18T05:36:51.091Z,1003.87
2023-04-18T05:37:51.178Z,1003.87
2023-04-18T05:38:51.157Z,1003.89
2023-04-18T05:39:51.297Z,1003.87
2023-04-18T05:40:51.264Z,1003.86
2023-04-18T05:41:51.450Z,1003.89
2023-04-18T05:42:51.358Z,1003.87
2023-04-18T05:44:01.918Z,1003.87
2023-04-18T05:44:52.972Z,1003.84
2023-04-18T05:45:51.525Z,1003.88
2023-04-18T05:46:50.998Z,1003.90
2023-04-18T05:47:51.318Z,1003.88
2023-04-18T05:48:51.297Z,1003.87
2023-04-18T05:49:51.191Z,1003.88
2023-04-18T05:50:51.304Z,1003.90
2023-04-18T05:51:50.897Z,1003.90
2023-04-18T05:52:50.887Z,1003.88
2023-04-18T05:53:51.360Z,1003.89
2023-04-18T05:54:50.931Z,1003.92
2023-04-18T05:55:51.005Z,1003.94
2023-04-18T05:56:52.063Z,1003.91
2023-04-18T05:57:51.664Z,1003.93
2023-04-18T05:58:51.222Z,1003.95
2023-04-18T05:59:50.910Z,1003.96
2023-04-18T06:00:51.011Z,1003.97
2023-04-18T06:01:51.239Z,1004.00
2023-04-18T06:02:52.315Z,1004.01
2023-04-18T06:03:51.840Z,1004.05
2023-04-18T06:04:51.355Z,1004.07
2023-04-18T06:05:51.466Z,1004.10
2023-04-18T06:06:51.575Z,1004.12
2023-04-18T06:07:51.425Z,1004.10
2023-04-18T06:08:51.673Z,1004.13
2023-04-18T06:09:51.035Z,1004.12
2023-04-18T06:10:50.956Z,1004.16
2023-04-18T06:11:51.360Z,1004.17
2023-04-18T06:12:51.147Z,1004.19
2023-04-18T06:13:51.226Z,1004.17
2023-04-18T06:14:51.195Z,1004.24
2023-04-18T06:15:50.832Z,1004.20
2023-04-18T06:16:51.355Z,1004.24
2023-04-18T06:17:51.121Z,1004.28
2023-04-18T06:18:51.308Z,1004.27
2023-04-18T06:19:51.433Z,1004.28
2023-04-18T06:20:51.809Z,1004.27
2023-04-18T06:21:50.698Z,1004.28
2023-04-18T06:22:50.727Z,1004.28
2023-04-18T06:23:50.726Z,1004.27
2023-04-18T06:24:50.862Z,1004.28
2023-04-18T06:25:56.764Z,1004.29
2023-04-18T06:26:51.053Z,1004.29
2023-04-18T06:27:50.705Z,1004.30
2023-04-18T06:28:50.813Z,1004.34
2023-04-18T06:29:50.893Z,1004.29
2023-04-18T06:30:50.999Z,1004.32
2023-04-18T06:31:51.046Z,1004.32
2023-04-18T06:32:51.393Z,1004.33
2023-04-18T06:33:50.730Z,1004.34
2023-04-18T06:34:51.386Z,1004.36
2023-04-18T06:35:51.178Z,1004.34
2023-04-18T06:36:51.516Z,1004.34
2023-04-18T06:37:50.875Z,1004.33
2023-04-18T06:38:51.117Z,1004.35
2023-04-18T06:39:50.845Z,1004.34
2023-04-18T06:40:50.598Z,1004.35
2023-04-18T06:41:51.095Z,1004.33
2023-04-18T06:42:51.432Z,1004.36
2023-04-18T06:44:02.673Z,1004.34
2023-04-18T06:44:52.940Z,1004.33
2023-04-18T06:45:50.535Z,1004.34
2023-04-18T06:46:50.509Z,1004.36
2023-04-18T06:47:50.521Z,1004.36
2023-04-18T06:48:51.519Z,1004.31
2023-04-18T06:49:50.467Z,1004.34
2023-04-18T06:50:50.525Z,1004.36
2023-04-18T06:51:50.488Z,1004.34
2023-04-18T06:52:50.467Z,1004.36
2023-04-18T06:53:50.435Z,1004.38
2023-04-18T06:54:50.453Z,1004.37
2023-04-18T06:55:50.428Z,1004.40
2023-04-18T06:56:50.464Z,1004.42
2023-04-18T06:57:50.435Z,1004.41
2023-04-18T06:58:50.418Z,1004.38
2023-04-18T06:59:50.435Z,1004.39
2023-04-18T07:00:50.473Z,1004.36
2023-04-18T07:01:50.396Z,1004.36
2023-04-18T07:02:50.570Z,1004.35
2023-04-18T07:03:50.461Z,1004.34
2023-04-18T07:04:50.413Z,1004.36
2023-04-18T07:05:50.402Z,1004.39
2023-04-18T07:06:50.353Z,1004.37
2023-04-18T07:07:50.381Z,1004.35
2023-04-18T07:08:51.291Z,1004.35
2023-04-18T07:09:50.391Z,1004.31
2023-04-18T07:10:50.323Z,1004.28
2023-04-18T07:11:51.545Z,1004.29
2023-04-18T07:12:50.322Z,1004.35
2023-04-18T07:13:50.329Z,1004.38
2023-04-18T07:14:50.353Z,1004.38
2023-04-18T07:15:50.282Z,1004.41
2023-04-18T07:16:50.323Z,1004.38
2023-04-18T07:17:50.332Z,1004.36
2023-04-18T07:18:50.281Z,1004.39
2023-04-18T07:19:50.270Z,1004.41
2023-04-18T07:20:50.349Z,1004.46
2023-04-18T07:21:50.268Z,1004.48
2023-04-18T07:22:50.252Z,1004.49
2023-04-18T07:23:50.256Z,1004.50
2023-04-18T07:24:50.246Z,1004.50
2023-04-18T07:25:50.233Z,1004.50
2023-04-18T07:26:50.264Z,1004.49
2023-04-18T07:27:50.313Z,1004.49
2023-04-18T07:28:50.191Z,1004.53
2023-04-18T07:29:50.239Z,1004.53
2023-04-18T07:30:50.268Z,1004.57
2023-04-18T07:31:50.173Z,1004.56
2023-04-18T07:32:50.391Z,1004.58
2023-04-18T07:33:50.179Z,1004.58
2023-04-18T07:34:50.141Z,1004.61
2023-04-18T07:35:50.167Z,1004.60
2023-04-18T07:36:50.159Z,1004.61
2023-04-18T07:37:50.164Z,1004.61
2023-04-18T07:38:50.180Z,1004.60
2023-04-18T07:39:50.132Z,1004.59
2023-04-18T07:40:50.120Z,1004.61
2023-04-18T07:41:50.130Z,1004.54
2023-04-18T07:42:50.132Z,1004.56
2023-04-18T07:43:50.114Z,1004.56
2023-04-18T07:44:50.169Z,1004.54
2023-04-18T07:45:50.177Z,1004.52
2023-04-18T07:46:50.146Z,1004.55
2023-04-18T07:47:50.110Z,1004.53
2023-04-18T07:48:50.049Z,1004.55
2023-04-18T07:49:50.070Z,1004.51
2023-04-18T07:50:50.118Z,1004.55
2023-04-18T07:51:50.039Z,1004.55
2023-04-18T07:52:50.036Z,1004.57
2023-04-18T07:53:50.015Z,1004.59
2023-04-18T07:54:50.021Z,1004.55
2023-04-18T07:55:50.026Z,1004.54
2023-04-18T07:56:50.055Z,1004.54
2023-04-18T07:57:50.025Z,1004.55
2023-04-18T07:58:49.986Z,1004.53
2023-04-18T07:59:49.986Z,1004.51
2023-04-18T08:00:49.994Z,1004.52
2023-04-18T08:01:49.989Z,1004.51
2023-04-18T08:02:50.195Z,1004.51
2023-04-18T08:03:50.064Z,1004.51
2023-04-18T08:04:50.147Z,1004.51
2023-04-18T08:05:49.944Z,1004.51
2023-04-18T08:06:49.958Z,1004.52
2023-04-18T08:07:49.937Z,1004.53
2023-04-18T08:08:49.985Z,1004.53
2023-04-18T08:09:49.902Z,1004.56
2023-04-18T08:10:49.941Z,1004.57
2023-04-18T08:11:49.921Z,1004.54
2023-04-18T08:12:49.897Z,1004.55
2023-04-18T08:13:49.868Z,1004.54
2023-04-18T08:14:49.942Z,1004.53
2023-04-18T08:15:49.997Z,1004.55
2023-04-18T08:16:49.878Z,1004.53
2023-04-18T08:17:49.908Z,1004.53
2023-04-18T08:18:49.879Z,1004.53
2023-04-18T08:19:49.838Z,1004.53
2023-04-18T08:20:49.857Z,1004.55
2023-04-18T08:21:49.866Z,1004.53
2023-04-18T08:23:04.688Z,1004.54
2023-04-18T08:23:50.799Z,1004.55
2023-04-18T08:25:03.243Z,1004.54
2023-04-18T08:25:50.844Z,1004.54
2023-04-18T08:26:49.855Z,1004.56
2023-04-18T08:27:49.774Z,1004.50
2023-04-18T08:28:49.779Z,1004.53
2023-04-18T08:29:49.783Z,1004.54
2023-04-18T08:30:49.778Z,1004.51
2023-04-18T08:31:49.891Z,1004.51
2023-04-18T08:32:49.833Z,1004.53
2023-04-18T08:33:49.743Z,1004.53
2023-04-18T08:34:49.749Z,1004.52
2023-04-18T08:35:49.730Z,1004.54
2023-04-18T08:36:49.714Z,1004.56
2023-04-18T08:37:49.752Z,1004.58
2023-04-18T08:38:50.373Z,1004.60
2023-04-18T08:39:49.721Z,1004.60
2023-04-18T08:40:49.691Z,1004.59
2023-04-18T08:41:49.735Z,1004.58
2023-04-18T08:42:49.736Z,1004.60
2023-04-18T08:43:49.721Z,1004.59
2023-04-18T08:44:49.700Z,1004.58
2023-04-18T08:45:49.697Z,1004.63
2023-04-18T08:46:49.772Z,1004.64
2023-04-18T08:47:49.665Z,1004.59
2023-04-18T08:48:49.629Z,1004.58
2023-04-18T08:49:49.735Z,1004.56
2023-04-18T08:50:49.646Z,1004.58
2023-04-18T08:51:49.617Z,1004.56
2023-04-18T08:52:49.621Z,1004.57
2023-04-18T08:53:49.597Z,1004.55
2023-04-18T08:54:49.579Z,1004.59
2023-04-18T08:55:49.673Z,1004.59
2023-04-18T08:56:49.601Z,1004.62
2023-04-18T08:57:49.577Z,1004.62
2023-04-18T08:58:49.578Z,1004.62
2023-04-18T08:59:50.941Z,1004.63
2023-04-18T09:00:49.557Z,1004.65
2023-04-18T09:01:49.876Z,1004.66
2023-04-18T09:02:50.655Z,1004.65
2023-04-18T09:03:49.601Z,1004.64
2023-04-18T09:04:49.540Z,1004.61
2023-04-18T09:05:49.512Z,1004.67
2023-04-18T09:06:49.517Z,1004.65
2023-04-18T09:07:49.568Z,1004.65
2023-04-18T09:08:49.506Z,1004.67
2023-04-18T09:09:49.493Z,1004.66
2023-04-18T09:10:49.474Z,1004.69
2023-04-18T09:11:49.479Z,1004.69
2023-04-18T09:12:49.641Z,1004.67
2023-04-18T09:13:49.482Z,1004.65
2023-04-18T09:14:49.469Z,1004.65
2023-04-18T09:15:49.471Z,1004.65
2023-04-18T09:16:49.457Z,1004.61
2023-04-18T09:17:49.456Z,1004.65
2023-04-18T09:18:49.430Z,1004.69
2023-04-18T09:19:49.493Z,1004.65
2023-04-18T09:20:49.418Z,1004.62
2023-04-18T09:21:49.384Z,1004.64
2023-04-18T09:22:49.386Z,1004.62
2023-04-18T09:23:49.397Z,1004.61
2023-04-18T09:24:49.376Z,1004.66
2023-04-18T09:25:49.415Z,1004.68
2023-04-18T09:26:49.366Z,1004.70
2023-04-18T09:27:49.364Z,1004.68
2023-04-18T09:28:49.342Z,1004.67
2023-04-18T09:29:49.383Z,1004.63
2023-04-18T09:30:49.337Z,1004.66
2023-04-18T09:31:49.358Z,1004.65
2023-04-18T09:32:49.315Z,1004.64
2023-04-18T09:33:49.338Z,1004.70
2023-04-18T09:34:49.343Z,1004.72
2023-04-18T09:35:49.298Z,1004.64
2023-04-18T09:36:49.305Z,1004.71
2023-04-18T09:37:49.323Z,1004.67
2023-04-18T09:38:49.292Z,1004.72
2023-04-18T09:39:49.275Z,1004.68
2023-04-18T09:40:49.313Z,1004.73
2023-04-18T09:41:49.254Z,1004.74
2023-04-18T09:42:49.261Z,1004.75
2023-04-18T09:43:49.307Z,1004.74
2023-04-18T09:44:49.229Z,1004.77
2023-04-18T09:45:49.297Z,1004.72
2023-04-18T09:46:49.325Z,1004.76
2023-04-18T09:47:49.243Z,1004.78
2023-04-18T09:48:49.219Z,1004.75
2023-04-18T09:49:49.258Z,1004.80
2023-04-18T09:50:49.248Z,1004.76
2023-04-18T09:51:49.191Z,1004.79
2023-04-18T09:52:49.201Z,1004.80
2023-04-18T09:53:49.149Z,1004.77
2023-04-18T09:54:49.169Z,1004.78
2023-04-18T09:55:49.411Z,1004.79
2023-04-18T09:56:49.132Z,1004.77
2023-04-18T09:57:49.166Z,1004.72
2023-04-18T09:58:49.148Z,1004.71
2023-04-18T09:59:49.118Z,1004.75
2023-04-18T10:00:49.120Z,1004.80
2023-04-18T10:01:49.163Z,1004.81
2023-04-18T10:02:49.200Z,1004.82
2023-04-18T10:03:49.168Z,1004.85
2023-04-18T10:04:49.180Z,1004.86
2023-04-18T10:05:49.162Z,1004.85
2023-04-18T10:06:49.106Z,1004.83
2023-04-18T10:07:49.126Z,1004.83
2023-04-18T10:08:49.134Z,1004.86
2023-04-18T10:09:49.059Z,1004.84
2023-04-18T10:10:49.072Z,1004.88
2023-04-18T10:11:49.089Z,1004.87
2023-04-18T10:12:49.061Z,1004.87
2023-04-18T10:13:49.072Z,1004.90
2023-04-18T10:14:49.040Z,1004.85
2023-04-18T10:15:50.398Z,1004.88
2023-04-18T10:16:50.464Z,1004.87
2023-04-18T10:18:02.802Z,1004.84
2023-04-18T10:18:50.061Z,1004.86
2023-04-18T10:19:48.962Z,1004.89
2023-04-18T10:20:49.007Z,1004.90
2023-04-18T10:21:48.953Z,1004.86
2023-04-18T10:22:49.006Z,1004.87
2023-04-18T10:23:49.024Z,1004.91
2023-04-18T10:24:48.985Z,1004.91
2023-04-18T10:25:48.930Z,1004.88
2023-04-18T10:26:49.015Z,1004.88
2023-04-18T10:27:49.099Z,1004.88
2023-04-18T10:28:48.973Z,1004.93
2023-04-18T10:29:48.944Z,1004.88
2023-04-18T10:30:49.031Z,1004.87
2023-04-18T10:31:48.952Z,1004.91
2023-04-18T10:32:48.966Z,1004.89
2023-04-18T10:34:48.892Z,1004.88
2023-04-18T10:35:48.873Z,1004.85
2023-04-18T10:36:48.900Z,1004.88
2023-04-18T10:37:48.854Z,1004.85
2023-04-18T10:38:48.837Z,1004.82
2023-04-18T10:39:49.026Z,1004.84
2023-04-18T10:40:48.846Z,1004.80
2023-04-18T10:41:49.527Z,1004.84
2023-04-18T10:42:48.857Z,1004.82
2023-04-18T10:43:48.824Z,1004.85
2023-04-18T10:44:48.805Z,1004.87
2023-04-18T10:45:48.807Z,1004.87
2023-04-18T10:46:48.958Z,1004.86
2023-04-18T10:47:48.841Z,1004.82
2023-04-18T10:48:48.824Z,1004.83
2023-04-18T10:49:48.812Z,1004.86
2023-04-18T10:50:48.769Z,1004.82
2023-04-18T10:51:48.752Z,1004.80
2023-04-18T10:52:48.746Z,1004.81
2023-04-18T10:53:48.809Z,1004.79
2023-04-18T10:54:49.293Z,1004.82
2023-04-18T10:55:48.728Z,1004.84
2023-04-18T10:56:48.716Z,1004.84
2023-04-18T10:57:48.795Z,1004.85
2023-04-18T10:58:48.705Z,1004.85
2023-04-18T10:59:48.765Z,1004.85
2023-04-18T11:00:49.033Z,1004.82
2023-04-18T11:01:48.667Z,1004.84
2023-04-18T11:02:48.901Z,1004.85
2023-04-18T11:03:48.708Z,1004.88
2023-04-18T11:04:48.724Z,1004.87
2023-04-18T11:05:48.725Z,1004.87
2023-04-18T11:06:48.693Z,1004.88
2023-04-18T11:07:48.738Z,1004.86
2023-04-18T11:08:48.640Z,1004.83
2023-04-18T11:09:48.618Z,1004.85
2023-04-18T11:10:48.610Z,1004.85
2023-04-18T11:11:48.656Z,1004.85
2023-04-18T11:12:48.736Z,1004.89
2023-04-18T11:13:48.604Z,1004.89
2023-04-18T11:14:48.614Z,1004.85
2023-04-18T11:15:48.558Z,1004.86
2023-04-18T11:16:48.644Z,1004.89
2023-04-18T11:17:48.601Z,1004.82
2023-04-18T11:18:48.620Z,1004.85
2023-04-18T11:19:48.614Z,1004.87
2023-04-18T11:20:48.541Z,1004.89
2023-04-18T11:21:48.543Z,1004.83
2023-04-18T11:22:48.522Z,1004.83
2023-04-18T11:23:48.567Z,1004.84
2023-04-18T11:24:48.577Z,1004.83
2023-04-18T11:25:48.518Z,1004.83
2023-04-18T11:26:48.504Z,1004.85
2023-04-18T11:27:48.530Z,1004.83
2023-04-18T11:28:48.503Z,1004.82
2023-04-18T11:29:48.494Z,1004.83
2023-04-18T11:30:48.544Z,1004.83
2023-04-18T11:31:48.495Z,1004.83
2023-04-18T11:32:48.478Z,1004.83
2023-04-18T11:33:48.463Z,1004.86
2023-04-18T11:34:48.441Z,1004.83
2023-04-18T11:35:48.478Z,1004.83
2023-04-18T11:36:48.490Z,1004.84
2023-04-18T11:37:48.458Z,1004.81
2023-04-18T11:38:48.439Z,1004.81
2023-04-18T11:39:48.404Z,1004.79
2023-04-18T11:40:48.406Z,1004.83
2023-04-18T11:41:48.431Z,1004.74
2023-04-18T11:42:48.453Z,1004.78
2023-04-18T11:43:48.378Z,1004.77
2023-04-18T11:44:48.377Z,1004.80
2023-04-18T11:45:48.448Z,1004.72
2023-04-18T11:46:48.337Z,1004.79
2023-04-18T11:47:48.363Z,1004.74
2023-04-18T11:48:48.432Z,1004.71
2023-04-18T11:49:48.331Z,1004.75
2023-04-18T11:50:48.334Z,1004.73
2023-04-18T11:51:48.344Z,1004.75
2023-04-18T11:52:48.308Z,1004.70
2023-04-18T11:53:48.349Z,1004.71
2023-04-18T11:54:48.339Z,1004.69
2023-04-18T11:55:48.308Z,1004.68
2023-04-18T11:56:48.318Z,1004.71
2023-04-18T11:57:48.276Z,1004.70
2023-04-18T11:58:48.296Z,1004.69
2023-04-18T11:59:48.294Z,1004.70
2023-04-18T12:00:48.728Z,1004.68
2023-04-18T12:01:48.315Z,1004.75
2023-04-18T12:02:48.341Z,1004.66
2023-04-18T12:03:48.390Z,1004.67
2023-04-18T12:04:48.413Z,1004.64
2023-04-18T12:05:48.598Z,1004.64
2023-04-18T12:06:48.254Z,1004.62